North Westchester, CT (06474)

3:42 AM EST on January 26, 2015 (GMT -0500)
Lyons' Den | Change Station
CLOSE
Current Station
Personal Weather Station
Location: Colchester, CT
Elevation: 430 ft
Nearby Weather Stations
Active Advisory: Blizzard Warning

Elev 430 ft 41.54 °N, 72.43 °W | Updated 3 minutes ago

Partly Cloudy
Partly Cloudy
18.3 °F
Feels Like 18 °F
N
1.0
Wind Variable Wind from East
Gusts 2.0 mph

Today
High -- | Low -- °F
--% Chance of Precip.
Yesterday
High -- | Low -- °F
Precip. -- in
7:07 AM 4:57 PM
Waxing Crescent, 41% visible
Pressure 30.03 in
Visibility 10.0 miles
Clouds Mostly Cloudy 9500 ft
Windchill 18 °F
Dew Point 8 °F
Humidity 63%
Rainfall 0.00 in
Snow Depth Not available.
UV 0 out of 12
Pollen .10 out of 12
Air Quality Not available.
Flu Activity Not available.
METAR KSNC 260835Z AUTO 04005KT 10SM BKN095 M06/M14 A3003 RMK AO2

More Conditions Fewer Conditions

Pressure 30.03 in
Visibility 10.0 miles
Clouds Mostly Cloudy 9500 ft
Windchill 18 °F
Dew Point 8 °F
Humidity 63%
Rainfall 0.00 in
Snow Depth Not available.
UV 0 out of 12
Pollen .10 out of 12
Air Quality Not available.
Flu Activity Not available.
METAR KSNC 260835Z AUTO 04005KT 10SM BKN095 M06/M14 A3003 RMK AO2

More Conditions Fewer Conditions

10-Day Weather Forecast

Almanac

Astronomy

Jan. 26, 2015 Rise Set
Actual Time
Civil Twilight
Nautical Twilight
Astronomical Twilight
Moon
Length of Visible Light
Length of Day
Tomorrow will be .
, % of the Moon is Illuminated

Today's Extremes

State Highs State Lows

Community

WunderPhotos

Upload Photos

1,790,163 photos uploaded!

WunderBlogs® & News

Nearby

Air Quality

  Air Quality AQ Index Pollutant
Not available.

Snow Depth

Station Depth Elevation

Earthquake Activity

City Distance Mag. Time & Date
Minimum magnitude displayed is 2.5.

Coastal Water Temperatures

Place Temperature

Nearby Weather Stations